Time;durP1;ratioP1;P1;durP2;ratioP2;P2;SDS_P1;SDS_P2;PMS_P1;PMS_P2;Temp;Humidity;BMP_temperature;BMP_pressure;BME280_temperature;BME280_humidity;BME280_pressure;Samples;Min_cycle;Max_cycle;Signal;HPM_P1;HPM_P2
2021/12/21 00:01:06;;;;;;;21.07;14.07;;;1.90;99.90;;;;;;5051336;28;20407;-89
2021/12/21 00:04:11;;;;;;;20.00;13.52;;;1.80;99.90;;;;;;5038728;28;20384;-89
2021/12/21 00:06:45;;;;;;;18.52;13.80;;;1.80;99.90;;;;;;5042204;28;20395;-88
2021/12/21 00:09:46;;;;;;;19.27;13.38;;;1.90;99.90;;;;;;5037410;28;20395;-88
2021/12/21 00:12:31;;;;;;;38.65;28.92;;;1.90;99.90;;;;;;5033399;28;20908;-88
2021/12/21 00:24:10;;;;;;;18.85;13.85;;;1.90;99.90;;;;;;5054961;28;20459;-88
2021/12/21 00:27:10;;;;;;;21.90;15.77;;;2.00;99.90;;;;;;5054523;28;20376;-89
2021/12/21 00:30:22;;;;;;;23.92;17.55;;;1.90;99.90;;;;;;5052306;28;20453;-88
2021/12/21 00:39:52;;;;;;;19.42;15.18;;;1.80;99.90;;;;;;5054789;28;20387;-86
2021/12/21 00:42:35;;;;;;;19.48;14.30;;;1.80;99.90;;;;;;5036246;28;20380;-88
2021/12/21 00:45:34;;;;;;;24.27;15.63;;;1.90;99.90;;;;;;5032655;28;20883;-88
2021/12/21 00:51:36;;;;;;;18.27;13.88;;;1.90;99.90;;;;;;5050893;28;20745;-88
2021/12/21 00:54:05;;;;;;;19.00;14.73;;;1.90;99.90;;;;;;5038917;28;20463;-87
2021/12/21 00:56:32;;;;;;;19.08;14.55;;;1.90;99.90;;;;;;5035407;28;20380;-87
2021/12/21 00:59:16;;;;;;;20.92;15.05;;;1.90;99.90;;;;;;5033133;28;20387;-87
2021/12/21 01:01:45;;;;;;;24.23;16.15;;;1.90;99.90;;;;;;5068466;28;20382;-87
2021/12/21 01:04:23;;;;;;;16.38;14.15;;;1.90;99.90;;;;;;5051053;28;20388;-86
2021/12/21 01:16:01;;;;;;;23.88;16.33;;;1.80;99.90;;;;;;5050634;28;20392;-86
2021/12/21 01:18:36;;;;;;;24.13;16.98;;;1.80;99.90;;;;;;5067389;28;20392;-86
2021/12/21 01:24:08;;;;;;;25.95;18.15;;;1.90;99.90;;;;;;5052170;28;20406;-87
2021/12/21 01:27:20;;;;;;;28.77;18.77;;;1.80;99.90;;;;;;5051274;28;20820;-88
2021/12/21 01:30:34;;;;;;;29.05;19.98;;;1.90;99.90;;;;;;5032381;28;20757;-86
2021/12/21 01:35:40;;;;;;;24.88;19.50;;;2.00;99.90;;;;;;5050087;28;20399;-85
2021/12/21 01:51:08;;;;;;;30.67;23.88;;;2.20;99.90;;;;;;5053227;28;20395;-87
2021/12/21 01:53:35;;;;;;;30.52;20.83;;;2.10;99.90;;;;;;5036276;28;20423;-87
2021/12/21 01:56:02;;;;;;;25.92;18.27;;;2.30;99.90;;;;;;5035917;28;20368;-85
2021/12/21 01:58:28;;;;;;;26.45;18.80;;;2.30;99.90;;;;;;5035754;28;20371;-85
2021/12/21 02:00:54;;;;;;;28.10;20.67;;;2.30;99.90;;;;;;5034532;28;20461;-86
2021/12/21 02:03:20;;;;;;;28.90;19.27;;;2.20;99.90;;;;;;5036181;28;20372;-87
2021/12/21 02:05:46;;;;;;;23.35;18.10;;;2.20;99.90;;;;;;5034888;28;20436;-86
2021/12/21 02:08:12;;;;;;;25.00;18.65;;;2.20;99.90;;;;;;5035373;28;20391;-87
2021/12/21 02:10:39;;;;;;;25.40;18.20;;;2.30;99.90;;;;;;5068558;28;20494;-87
2021/12/21 02:13:05;;;;;;;23.92;19.10;;;2.20;99.90;;;;;;5067892;28;20379;-86
2021/12/21 02:15:31;;;;;;;27.92;20.25;;;2.30;99.90;;;;;;5041722;28;20388;-86
2021/12/21 02:18:28;;;;;;;29.35;22.63;;;2.20;99.90;;;;;;5053556;28;20437;-85
2021/12/21 02:20:57;;;;;;;28.00;21.08;;;2.10;99.90;;;;;;5053547;28;20390;-85
2021/12/21 02:23:34;;;;;;;27.15;20.65;;;2.10;99.90;;;;;;5035717;28;20885;-86
2021/12/21 02:30:56;;;;;;;26.73;21.42;;;2.20;99.90;;;;;;5052000;28;20410;-85
2021/12/21 02:33:25;;;;;;;29.75;21.80;;;2.10;99.90;;;;;;5034488;28;20419;-86
2021/12/21 02:35:51;;;;;;;31.40;22.35;;;2.20;99.90;;;;;;5067275;28;20817;-85
2021/12/21 02:38:17;;;;;;;27.38;21.30;;;2.00;99.90;;;;;;5052366;28;20384;-86
2021/12/21 02:40:58;;;;;;;30.75;23.23;;;2.00;99.90;;;;;;5057688;28;20368;-86
2021/12/21 02:43:32;;;;;;;29.92;22.17;;;2.10;99.90;;;;;;5053048;28;20383;-86
2021/12/21 02:45:59;;;;;;;31.13;23.42;;;2.10;99.90;;;;;;5035873;28;21202;-86
2021/12/21 02:48:51;;;;;;;31.70;23.37;;;2.10;99.90;;;;;;5068211;28;20506;-87
2021/12/21 02:51:23;;;;;;;30.55;23.10;;;2.10;99.90;;;;;;5035235;28;20428;-86
2021/12/21 02:54:15;;;;;;;37.08;24.65;;;2.10;99.90;;;;;;5033046;28;20451;-86
2021/12/21 02:56:49;;;;;;;29.13;22.67;;;2.10;99.90;;;;;;5036201;28;20380;-86
2021/12/21 02:59:15;;;;;;;29.73;23.23;;;2.00;99.90;;;;;;5021436;28;20384;-86
2021/12/21 03:01:55;;;;;;;32.47;23.70;;;2.00;99.90;;;;;;5013865;28;20404;-87
2021/12/21 03:04:23;;;;;;;31.70;22.98;;;2.00;99.90;;;;;;5080348;28;20803;-85
2021/12/21 03:09:39;;;;;;;31.58;23.55;;;2.10;99.90;;;;;;5043254;28;20464;-85
2021/12/21 03:13:52;;;;;;;28.65;22.48;;;2.10;99.90;;;;;;5037924;28;20399;-86
2021/12/21 03:15:35;;;;;;;27.73;21.75;;;2.20;99.90;;;;;;5053837;28;20406;-87
2021/12/21 03:18:22;;;;;;;30.17;22.23;;;2.20;99.90;;;;;;5049409;28;20424;-86
2021/12/21 03:20:50;;;;;;;31.33;23.08;;;2.20;99.90;;;;;;5018736;28;20413;-86
2021/12/21 03:23:16;;;;;;;29.58;22.15;;;2.20;99.90;;;;;;4999756;28;20439;-87
2021/12/21 03:25:42;;;;;;;36.97;24.73;;;2.20;99.90;;;;;;5026627;28;20380;-85
2021/12/21 03:28:14;;;;;;;34.55;24.60;;;2.20;99.90;;;;;;5035194;28;20383;-86
2021/12/21 03:30:39;;;;;;;32.22;23.63;;;2.20;99.90;;;;;;5069059;28;20414;-85
2021/12/21 03:33:05;;;;;;;36.58;24.52;;;2.10;99.90;;;;;;5026125;28;20889;-85
2021/12/21 03:35:33;;;;;;;32.38;23.83;;;2.20;99.90;;;;;;5069127;28;20784;-87
2021/12/21 03:38:36;;;;;;;35.28;25.00;;;2.10;99.90;;;;;;5035781;28;20447;-86
2021/12/21 03:41:09;;;;;;;35.22;25.60;;;2.00;99.90;;;;;;5052687;28;20437;-85
2021/12/21 03:43:36;;;;;;;35.05;24.90;;;2.00;99.90;;;;;;5053393;28;20433;-86
2021/12/21 03:46:12;;;;;;;31.73;24.95;;;2.10;99.90;;;;;;5034695;28;20418;-86
2021/12/21 03:48:51;;;;;;;33.47;24.45;;;2.00;99.90;;;;;;5052998;28;20400;-87
2021/12/21 03:51:21;;;;;;;33.97;23.88;;;1.90;99.90;;;;;;5034327;28;20392;-87
2021/12/21 03:53:50;;;;;;;33.40;24.05;;;2.00;99.90;;;;;;5068248;28;20441;-87
2021/12/21 03:56:39;;;;;;;36.65;26.45;;;2.00;99.90;;;;;;5035337;28;20375;-86
2021/12/21 03:59:11;;;;;;;31.58;24.70;;;2.00;99.90;;;;;;5067773;28;20736;-88
2021/12/21 04:01:43;;;;;;;39.10;25.67;;;2.00;99.90;;;;;;5034146;28;20873;-85
2021/12/21 04:04:10;;;;;;;36.75;25.48;;;1.90;99.90;;;;;;5034786;28;20933;-87
2021/12/21 04:06:58;;;;;;;39.88;27.40;;;1.90;99.90;;;;;;5034742;28;20865;-86
2021/12/21 04:09:49;;;;;;;34.97;25.45;;;1.80;99.90;;;;;;5034002;28;20414;-88
2021/12/21 04:12:28;;;;;;;35.22;25.55;;;1.80;99.90;;;;;;5051494;28;20883;-86
2021/12/21 04:14:56;;;;;;;37.42;27.35;;;1.70;99.90;;;;;;5069337;28;20776;-88
2021/12/21 04:17:24;;;;;;;42.42;28.73;;;1.70;99.90;;;;;;5050451;28;20387;-85
2021/12/21 04:19:53;;;;;;;34.00;26.13;;;1.60;99.90;;;;;;5051879;28;20384;-86
2021/12/21 04:22:49;;;;;;;36.78;27.60;;;1.70;99.90;;;;;;5034380;28;20384;-87
2021/12/21 04:25:16;;;;;;;41.10;28.93;;;1.70;99.90;;;;;;5042214;28;20470;-85
2021/12/21 04:27:44;;;;;;;39.00;28.73;;;1.60;99.90;;;;;;5034184;28;20467;-86
2021/12/21 04:30:31;;;;;;;37.20;27.23;;;1.60;99.90;;;;;;5036908;28;20485;-85
2021/12/21 04:32:59;;;;;;;35.97;27.17;;;1.70;99.90;;;;;;5033492;28;20959;-85
2021/12/21 04:35:29;;;;;;;38.97;29.52;;;1.60;99.90;;;;;;5018143;28;20872;-87
2021/12/21 04:37:59;;;;;;;38.63;28.58;;;1.70;99.90;;;;;;5034342;28;20383;-87
2021/12/21 04:40:46;;;;;;;35.83;26.55;;;1.60;99.90;;;;;;5034148;28;20861;-85
2021/12/21 04:43:27;;;;;;;37.03;27.73;;;1.60;99.90;;;;;;5039333;28;20390;-87
2021/12/21 04:45:55;;;;;;;37.85;27.98;;;1.60;99.90;;;;;;5033933;28;20457;-86
2021/12/21 04:48:21;;;;;;;38.25;27.55;;;1.70;99.90;;;;;;5001730;28;20427;-86
2021/12/21 04:50:48;;;;;;;36.92;28.50;;;1.60;99.90;;;;;;5045740;28;20861;-84
2021/12/21 04:53:15;;;;;;;39.78;30.38;;;1.60;99.90;;;;;;5019691;28;20821;-88
2021/12/21 04:55:41;;;;;;;36.85;27.88;;;1.50;99.90;;;;;;5034853;28;20383;-86
2021/12/21 04:58:08;;;;;;;40.65;30.23;;;1.60;99.90;;;;;;5034195;28;20413;-88
2021/12/21 05:00:35;;;;;;;40.53;30.35;;;1.60;99.90;;;;;;5034006;28;20414;-85
2021/12/21 05:03:22;;;;;;;44.80;31.65;;;1.60;99.90;;;;;;5060734;28;20400;-87
2021/12/21 05:05:51;;;;;;;42.67;30.33;;;1.50;99.90;;;;;;5020108;28;20384;-85
2021/12/21 05:08:25;;;;;;;42.67;31.23;;;1.50;99.90;;;;;;5013692;28;20879;-85
2021/12/21 05:11:06;;;;;;;43.55;31.75;;;1.50;99.90;;;;;;5033166;28;20393;-84
2021/12/21 05:13:40;;;;;;;38.95;30.35;;;1.40;99.90;;;;;;5037664;28;20568;-86
2021/12/21 05:16:06;;;;;;;39.08;30.15;;;1.50;99.90;;;;;;5023075;28;20462;-86
2021/12/21 05:18:38;;;;;;;40.47;30.60;;;1.50;99.90;;;;;;5036798;28;20467;-86
2021/12/21 05:21:04;;;;;;;42.58;31.92;;;1.60;99.90;;;;;;5037493;28;20399;-86
2021/12/21 05:23:31;;;;;;;41.78;30.95;;;1.70;99.90;;;;;;5071688;28;20462;-86
2021/12/21 05:25:58;;;;;;;49.15;32.90;;;1.70;99.90;;;;;;5071502;28;20375;-86
2021/12/21 05:28:27;;;;;;;38.30;30.17;;;1.60;99.90;;;;;;5037422;28;20383;-85
2021/12/21 05:31:17;;;;;;;40.75;31.38;;;1.60;99.90;;;;;;5070602;28;20427;-87
2021/12/21 05:33:45;;;;;;;42.45;30.92;;;1.60;99.90;;;;;;5038695;28;20383;-87
2021/12/21 05:36:13;;;;;;;38.75;29.67;;;1.70;99.90;;;;;;5069576;28;20894;-86
2021/12/21 05:38:46;;;;;;;38.03;30.15;;;1.80;99.90;;;;;;5069703;28;20442;-87
2021/12/21 05:41:22;;;;;;;42.85;30.45;;;1.80;99.90;;;;;;5055199;28;20387;-85
2021/12/21 05:44:04;;;;;;;42.70;31.38;;;1.80;99.90;;;;;;5054759;28;20368;-86
2021/12/21 05:46:34;;;;;;;41.45;30.00;;;1.80;99.90;;;;;;5035993;28;20465;-88
2021/12/21 05:49:11;;;;;;;36.70;28.60;;;1.80;99.90;;;;;;5054866;28;20391;-86
2021/12/21 05:51:37;;;;;;;42.67;30.80;;;1.70;99.90;;;;;;5037348;28;20437;-87
2021/12/21 05:54:04;;;;;;;38.10;30.03;;;1.70;99.90;;;;;;5039077;28;20422;-85
2021/12/21 05:56:36;;;;;;;39.00;30.70;;;1.70;99.90;;;;;;5037651;28;20394;-88
2021/12/21 05:59:03;;;;;;;40.38;29.83;;;1.80;99.90;;;;;;5051953;28;20415;-86
2021/12/21 06:01:32;;;;;;;44.35;30.60;;;1.80;99.90;;;;;;5036632;28;20386;-87
2021/12/21 06:04:01;;;;;;;41.83;30.23;;;1.70;99.90;;;;;;5036462;28;20545;-86
2021/12/21 06:06:30;;;;;;;38.25;29.75;;;1.70;99.90;;;;;;5021426;28;20414;-85
2021/12/21 06:08:59;;;;;;;35.15;27.63;;;1.70;99.90;;;;;;5036283;28;20384;-87
2021/12/21 06:11:27;;;;;;;41.80;30.05;;;1.80;99.90;;;;;;5055832;28;20921;-86
2021/12/21 06:25:24;;;;;;;41.17;31.27;;;1.70;99.90;;;;;;5009980;28;20388;-88
2021/12/21 06:27:55;;;;;;;41.57;31.73;;;1.70;99.90;;;;;;5053972;28;20953;-85
2021/12/21 06:30:39;;;;;;;41.42;30.90;;;1.80;99.90;;;;;;5053501;28;20368;-86
2021/12/21 06:33:09;;;;;;;42.92;31.58;;;1.90;99.90;;;;;;5053487;28;20407;-89
2021/12/21 06:35:37;;;;;;;47.95;33.92;;;1.90;99.90;;;;;;5069387;28;20406;-85
2021/12/21 06:38:05;;;;;;;48.28;35.15;;;1.80;99.90;;;;;;5068615;28;20413;-86
2021/12/21 06:40:32;;;;;;;42.85;32.40;;;1.60;99.90;;;;;;5037706;28;20441;-86
2021/12/21 06:43:01;;;;;;;41.50;31.45;;;1.70;99.90;;;;;;5035583;28;20382;-87
2021/12/21 06:53:55;;;;;;;40.97;30.23;;;1.80;99.90;;;;;;5029886;28;20409;-85
2021/12/21 06:56:22;;;;;;;44.65;32.33;;;1.90;99.90;;;;;;5033551;28;20384;-87
2021/12/21 06:58:48;;;;;;;47.75;33.50;;;1.90;99.90;;;;;;5034385;28;20403;-86
2021/12/21 07:01:15;;;;;;;46.72;34.38;;;1.90;99.90;;;;;;5034052;28;20387;-85
2021/12/21 07:03:42;;;;;;;51.38;34.42;;;1.90;99.90;;;;;;5069369;28;20396;-86
2021/12/21 07:06:09;;;;;;;48.53;34.22;;;1.80;99.90;;;;;;5034176;28;20418;-85
2021/12/21 07:08:45;;;;;;;43.15;32.63;;;1.80;99.90;;;;;;5067725;28;20404;-87
2021/12/21 07:11:26;;;;;;;49.13;33.50;;;1.80;99.90;;;;;;5027522;28;20396;-88
2021/12/21 07:19:45;;;;;;;47.92;33.83;;;1.80;99.90;;;;;;5054495;28;20391;-88
2021/12/21 07:22:12;;;;;;;50.47;36.30;;;1.80;99.90;;;;;;5057005;28;20368;-87
2021/12/21 07:25:00;;;;;;;55.30;38.95;;;1.90;99.90;;;;;;5082631;28;20376;-87
2021/12/21 07:27:26;;;;;;;53.47;38.53;;;1.90;99.90;;;;;;5071150;28;20429;-89
2021/12/21 07:29:53;;;;;;;56.13;38.97;;;1.90;99.90;;;;;;5068035;28;20388;-87
2021/12/21 07:32:19;;;;;;;53.47;37.95;;;1.90;99.90;;;;;;5067735;28;20901;-88
2021/12/21 07:34:44;;;;;;;49.90;34.25;;;1.90;99.90;;;;;;5065758;28;20418;-87
2021/12/21 07:37:10;;;;;;;57.65;37.67;;;2.00;99.90;;;;;;5033677;28;20449;-87
2021/12/21 07:39:37;;;;;;;51.77;35.17;;;1.70;99.90;;;;;;5067341;28;20515;-86
2021/12/21 07:42:05;;;;;;;58.45;37.40;;;1.80;99.90;;;;;;5014641;28;20438;-87
2021/12/21 07:44:30;;;;;;;54.50;37.15;;;1.80;99.90;;;;;;5020208;28;20388;-87
2021/12/21 07:46:56;;;;;;;59.30;38.38;;;1.80;99.90;;;;;;5066466;28;20406;-88
2021/12/21 07:49:22;;;;;;;56.40;38.30;;;1.70;99.90;;;;;;5067680;28;20391;-87
2021/12/21 07:51:51;;;;;;;57.83;37.22;;;1.70;99.90;;;;;;5069219;28;20403;-88
2021/12/21 07:54:21;;;;;;;54.47;36.17;;;1.80;99.90;;;;;;5068910;28;20398;-88
2021/12/21 07:56:48;;;;;;;54.60;36.70;;;1.90;99.90;;;;;;5071130;28;20439;-87
2021/12/21 07:59:16;;;;;;;52.05;36.55;;;1.90;99.90;;;;;;5072716;28;20383;-89
2021/12/21 08:01:42;;;;;;;56.97;35.67;;;1.90;99.90;;;;;;5067401;28;20395;-87
2021/12/21 08:04:11;;;;;;;57.53;36.03;;;2.10;99.90;;;;;;5066666;28;20388;-87
2021/12/21 08:06:38;;;;;;;57.35;37.13;;;2.10;99.90;;;;;;5033032;28;20491;-85
2021/12/21 08:09:05;;;;;;;53.00;35.63;;;2.10;99.90;;;;;;5033435;28;20950;-87
2021/12/21 08:14:00;;;;;;;59.75;37.17;;;2.00;99.90;;;;;;5054720;28;20835;-87
2021/12/21 08:16:27;;;;;;;59.42;37.65;;;2.00;99.90;;;;;;5068047;28;20400;-86
2021/12/21 08:18:53;;;;;;;63.55;38.58;;;2.10;99.90;;;;;;5033096;28;20426;-88
2021/12/21 08:21:19;;;;;;;62.35;37.85;;;1.90;99.90;;;;;;5032963;28;20784;-87
2021/12/21 08:23:46;;;;;;;57.07;37.20;;;1.90;99.90;;;;;;5032984;28;20454;-89
2021/12/21 08:26:12;;;;;;;55.58;35.28;;;2.00;99.90;;;;;;5032572;28;20380;-88
2021/12/21 08:28:38;;;;;;;59.15;36.85;;;2.10;99.90;;;;;;5031955;28;20388;-88
2021/12/21 08:31:04;;;;;;;53.15;34.95;;;2.10;99.90;;;;;;5029928;28;20732;-87
2021/12/21 08:33:30;;;;;;;53.75;34.55;;;2.20;99.90;;;;;;5032905;28;20360;-84
2021/12/21 08:35:56;;;;;;;52.33;33.60;;;2.10;99.90;;;;;;5033143;28;20657;-87
2021/12/21 08:38:22;;;;;;;48.78;31.50;;;2.10;99.90;;;;;;5049751;28;20383;-88
2021/12/21 08:40:50;;;;;;;51.03;33.75;;;2.10;99.90;;;;;;5032577;28;20458;-85
2021/12/21 08:43:24;;;;;;;47.23;30.90;;;2.10;99.90;;;;;;5032474;28;20465;-87
2021/12/21 08:45:52;;;;;;;43.07;28.90;;;2.10;99.90;;;;;;5065621;28;20778;-87
2021/12/21 08:48:19;;;;;;;37.78;26.00;;;2.30;99.90;;;;;;5065812;28;20817;-87
2021/12/21 08:50:46;;;;;;;33.38;24.30;;;2.30;99.90;;;;;;5066090;28;20765;-87
2021/12/21 08:53:14;;;;;;;33.03;23.30;;;2.30;99.90;;;;;;5065402;28;20505;-87
2021/12/21 08:55:42;;;;;;;34.90;24.45;;;2.40;99.90;;;;;;5052314;28;20451;-85
2021/12/21 08:58:08;;;;;;;41.28;25.60;;;2.50;99.90;;;;;;5032048;28;20395;-86
2021/12/21 09:00:34;;;;;;;39.10;25.95;;;2.30;99.90;;;;;;5032390;28;20467;-87
2021/12/21 09:03:01;;;;;;;36.80;25.92;;;2.30;99.90;;;;;;5050374;28;20388;-86
2021/12/21 09:05:30;;;;;;;38.57;25.70;;;2.30;99.90;;;;;;5031440;28;20780;-87
2021/12/21 09:07:57;;;;;;;35.67;25.08;;;2.40;99.90;;;;;;5031981;28;20379;-89
2021/12/21 09:10:24;;;;;;;37.63;24.73;;;2.50;99.90;;;;;;5032847;28;20383;-87
2021/12/21 09:12:51;;;;;;;38.05;27.23;;;2.50;99.90;;;;;;5032776;28;20387;-87
2021/12/21 09:15:18;;;;;;;40.95;26.80;;;2.20;99.90;;;;;;5065743;28;20376;-85
2021/12/21 09:17:44;;;;;;;41.00;27.13;;;2.30;99.90;;;;;;5065664;28;20675;-87
2021/12/21 09:20:13;;;;;;;42.53;27.70;;;2.30;99.90;;;;;;5030794;28;20402;-86
2021/12/21 09:22:39;;;;;;;38.97;25.63;;;2.30;99.90;;;;;;5053610;28;20741;-87
2021/12/21 09:25:06;;;;;;;44.47;28.33;;;2.30;99.90;;;;;;5029761;28;20495;-87
2021/12/21 09:27:32;;;;;;;43.50;27.23;;;2.30;99.90;;;;;;5028868;28;20377;-87
2021/12/21 09:29:58;;;;;;;38.53;25.40;;;2.40;99.90;;;;;;5036690;28;20391;-86
2021/12/21 09:32:25;;;;;;;31.73;23.00;;;2.50;99.90;;;;;;5032084;28;20400;-88
2021/12/21 09:34:51;;;;;;;32.33;23.30;;;2.60;99.90;;;;;;5032154;28;20844;-87
2021/12/21 09:37:20;;;;;;;32.60;24.38;;;2.50;99.90;;;;;;5032091;28;20406;-86
2021/12/21 09:39:49;;;;;;;32.03;23.60;;;2.40;99.90;;;;;;5032782;28;20382;-85
2021/12/21 09:42:18;;;;;;;29.45;21.83;;;2.40;99.90;;;;;;5032161;28;20377;-86
2021/12/21 09:44:44;;;;;;;35.03;23.25;;;2.50;99.90;;;;;;5029227;28;20883;-86
2021/12/21 09:47:12;;;;;;;29.20;21.83;;;2.60;99.90;;;;;;5029909;28;20392;-85
2021/12/21 09:49:39;;;;;;;27.20;19.65;;;2.60;99.90;;;;;;5029286;28;20383;-85
2021/12/21 09:52:07;;;;;;;30.73;21.05;;;2.50;99.90;;;;;;5025645;28;20392;-86
2021/12/21 09:54:34;;;;;;;33.50;23.07;;;2.40;99.90;;;;;;5036796;28;20441;-85
2021/12/21 09:57:00;;;;;;;35.03;24.05;;;2.40;99.90;;;;;;5038458;28;20375;-87
2021/12/21 09:59:27;;;;;;;35.58;23.60;;;2.50;99.90;;;;;;5055910;28;20404;-84
2021/12/21 10:01:56;;;;;;;34.17;23.80;;;2.40;99.90;;;;;;5046124;28;20775;-86
2021/12/21 10:04:22;;;;;;;32.65;23.38;;;2.40;99.90;;;;;;5031954;28;20537;-85
2021/12/21 10:06:53;;;;;;;35.20;24.48;;;2.40;99.90;;;;;;5041014;28;20739;-86
2021/12/21 10:09:23;;;;;;;34.00;23.58;;;2.50;99.90;;;;;;5030729;28;20391;-86
2021/12/21 10:11:50;;;;;;;31.67;22.57;;;2.50;99.90;;;;;;5030936;28;20560;-86
2021/12/21 10:14:18;;;;;;;31.85;23.15;;;2.60;99.90;;;;;;5037270;28;20395;-86
2021/12/21 10:16:47;;;;;;;25.88;20.08;;;2.70;99.90;;;;;;5036919;28;20427;-86
2021/12/21 10:19:21;;;;;;;31.57;22.07;;;2.70;99.90;;;;;;5031125;28;20370;-85
2021/12/21 10:21:49;;;;;;;30.90;21.83;;;2.80;99.90;;;;;;5031411;28;20383;-86
2021/12/21 10:24:23;;;;;;;30.75;22.33;;;2.90;99.90;;;;;;5040736;28;20390;-86
2021/12/21 10:26:53;;;;;;;33.13;22.42;;;2.90;99.90;;;;;;5041454;28;20716;-85
2021/12/21 10:29:19;;;;;;;30.97;22.27;;;2.90;99.90;;;;;;5030695;28;20388;-85
2021/12/21 10:31:47;;;;;;;31.40;22.73;;;2.80;99.90;;;;;;5041091;28;20401;-85
2021/12/21 10:34:18;;;;;;;30.48;22.17;;;2.90;99.90;;;;;;5047198;28;20395;-86
2021/12/21 10:36:47;;;;;;;33.78;22.55;;;2.90;99.90;;;;;;5052185;28;20422;-84
2021/12/21 10:39:28;;;;;;;30.93;23.17;;;2.80;99.90;;;;;;5035197;28;20509;-85
2021/12/21 10:41:59;;;;;;;33.47;24.05;;;2.80;99.90;;;;;;5035228;28;20941;-87
2021/12/21 10:44:26;;;;;;;31.35;23.67;;;2.80;99.90;;;;;;5051255;28;20386;-83
2021/12/21 10:47:03;;;;;;;33.80;23.95;;;2.70;99.90;;;;;;5050800;28;20431;-87
2021/12/21 10:49:31;;;;;;;34.30;23.98;;;2.70;99.90;;;;;;5047334;28;20780;-83
2021/12/21 10:52:07;;;;;;;36.93;24.63;;;2.70;99.90;;;;;;5034824;28;20403;-88
2021/12/21 10:54:42;;;;;;;35.92;25.35;;;2.60;99.90;;;;;;5050245;28;20383;-87
2021/12/21 10:57:11;;;;;;;35.28;24.23;;;2.70;99.90;;;;;;5048447;28;20391;-85
2021/12/21 10:59:40;;;;;;;31.50;22.88;;;2.60;99.90;;;;;;5033164;28;20380;-85
2021/12/21 11:02:24;;;;;;;35.88;24.88;;;2.60;99.90;;;;;;5050464;28;20525;-85
2021/12/21 11:04:56;;;;;;;33.22;23.27;;;2.60;99.90;;;;;;5052210;28;20391;-88
2021/12/21 11:07:42;;;;;;;28.90;21.35;;;2.60;99.90;;;;;;5046596;28;20856;-87
2021/12/21 11:10:19;;;;;;;33.42;22.98;;;2.70;99.90;;;;;;5043741;28;20379;-89
2021/12/21 11:12:54;;;;;;;32.13;22.00;;;2.80;99.90;;;;;;5049714;28;20909;-86
2021/12/21 11:15:28;;;;;;;35.35;24.63;;;2.70;99.90;;;;;;5050394;28;20415;-88
2021/12/21 11:18:03;;;;;;;34.47;24.27;;;2.50;99.90;;;;;;5058593;28;20373;-88
2021/12/21 11:20:32;;;;;;;31.98;22.67;;;2.60;99.90;;;;;;5031305;28;20397;-88
2021/12/21 11:22:57;;;;;;;31.83;23.08;;;2.60;99.90;;;;;;5027624;28;20957;-87
2021/12/21 11:25:24;;;;;;;32.13;21.87;;;2.70;99.90;;;;;;5034260;28;20483;-89
2021/12/21 11:27:50;;;;;;;30.02;22.05;;;2.70;99.90;;;;;;5051064;28;20379;-87
2021/12/21 11:30:21;;;;;;;29.57;21.40;;;2.70;99.90;;;;;;5048874;28;20899;-87
2021/12/21 11:32:51;;;;;;;25.95;20.90;;;2.80;99.90;;;;;;5050897;28;20474;-88
2021/12/21 11:37:50;;;;;;;28.38;21.70;;;2.80;99.90;;;;;;5054386;28;20384;-88
2021/12/21 11:40:20;;;;;;;26.35;20.77;;;2.70;99.90;;;;;;5051320;28;22502;-89
2021/12/21 11:42:52;;;;;;;26.17;20.33;;;2.80;99.90;;;;;;5041855;28;20395;-88
2021/12/21 11:45:23;;;;;;;25.92;21.52;;;2.80;99.90;;;;;;5050060;28;20391;-87
2021/12/21 11:47:56;;;;;;;25.57;21.00;;;2.90;99.90;;;;;;5047741;28;20413;-87
2021/12/21 11:50:24;;;;;;;25.15;19.55;;;2.90;99.90;;;;;;5023551;28;20387;-89
2021/12/21 11:52:54;;;;;;;29.03;22.30;;;3.00;99.90;;;;;;5057251;28;20375;-88
2021/12/21 11:55:25;;;;;;;30.60;22.48;;;2.80;99.90;;;;;;5045099;28;20372;-87
2021/12/21 11:58:16;;;;;;;29.00;21.63;;;2.50;99.90;;;;;;5028355;28;20377;-87
2021/12/21 12:00:50;;;;;;;27.37;21.23;;;2.60;99.90;;;;;;5031166;28;20398;-87
2021/12/21 12:03:21;;;;;;;30.97;23.37;;;2.40;99.90;;;;;;5031490;28;20456;-89
2021/12/21 12:06:15;;;;;;;35.88;25.10;;;2.40;99.90;;;;;;5031032;28;20466;-86
2021/12/21 12:08:55;;;;;;;30.00;23.25;;;2.30;99.90;;;;;;5046283;28;20380;-87
2021/12/21 12:11:37;;;;;;;32.72;24.00;;;2.10;99.90;;;;;;5039283;28;20391;-86
2021/12/21 12:14:08;;;;;;;34.22;24.15;;;2.10;99.90;;;;;;5031821;28;20887;-85
2021/12/21 12:16:44;;;;;;;33.97;25.25;;;1.90;99.90;;;;;;5030851;28;20380;-86
2021/12/21 12:19:20;;;;;;;32.55;24.80;;;2.10;99.90;;;;;;5031543;28;20412;-88
2021/12/21 12:21:56;;;;;;;35.92;26.35;;;2.10;99.90;;;;;;5026646;28;20395;-86
2021/12/21 12:24:27;;;;;;;37.03;26.30;;;2.10;99.90;;;;;;5033413;28;20384;-86
2021/12/21 12:27:20;;;;;;;38.53;27.33;;;2.00;99.90;;;;;;5027224;28;20859;-86
2021/12/21 12:30:11;;;;;;;39.38;27.75;;;2.10;99.90;;;;;;5037688;28;20403;-88
2021/12/21 12:32:47;;;;;;;36.58;26.80;;;2.00;99.90;;;;;;5028063;28;20394;-86
2021/12/21 12:35:31;;;;;;;37.43;26.50;;;1.80;99.90;;;;;;5036090;28;20385;-87
2021/12/21 12:38:12;;;;;;;37.90;24.65;;;1.60;99.90;;;;;;5037918;28;20392;-87
2021/12/21 12:40:44;;;;;;;36.90;25.17;;;1.50;99.90;;;;;;5037326;28;20855;-87
2021/12/21 12:43:17;;;;;;;37.22;24.92;;;1.50;99.90;;;;;;5038087;28;20385;-85
2021/12/21 12:45:50;;;;;;;36.22;24.45;;;1.60;99.90;;;;;;5027252;28;20381;-88
2021/12/21 12:48:31;;;;;;;39.58;26.05;;;1.60;99.90;;;;;;4848374;28;5146402;-86
2021/12/21 12:51:02;;;;;;;35.40;23.25;;;1.80;99.90;;;;;;5049905;28;20399;-87
2021/12/21 12:53:45;;;;;;;29.27;21.90;;;1.90;99.90;;;;;;5028420;28;20389;-87
2021/12/21 12:56:19;;;;;;;36.40;25.03;;;1.90;99.90;;;;;;5037058;28;20411;-84
2021/12/21 12:59:02;;;;;;;34.50;24.58;;;2.10;99.90;;;;;;5037974;28;20863;-84
2021/12/21 13:01:41;;;;;;;32.50;22.80;;;1.70;99.90;;;;;;5031174;28;20469;-90
2021/12/21 13:04:11;;;;;;;31.37;22.13;;;1.70;99.90;;;;;;5038679;28;20387;-86
2021/12/21 13:06:40;;;;;;;36.05;24.42;;;1.70;99.90;;;;;;5027705;28;20389;-88
2021/12/21 13:09:10;;;;;;;37.97;24.73;;;1.70;99.90;;;;;;5033603;28;20742;-86
2021/12/21 13:11:40;;;;;;;35.30;25.08;;;1.70;99.90;;;;;;5038161;28;20433;-84
2021/12/21 13:14:10;;;;;;;38.27;24.97;;;1.70;99.90;;;;;;5038796;28;20372;-88
2021/12/21 13:16:38;;;;;;;36.70;24.67;;;1.70;99.90;;;;;;5040557;28;20376;-89
2021/12/21 13:19:11;;;;;;;40.97;26.83;;;1.60;99.90;;;;;;5047008;28;21172;-86
2021/12/21 13:21:54;;;;;;;42.40;26.27;;;1.60;99.90;;;;;;5040639;28;20396;-87
2021/12/21 13:24:25;;;;;;;40.00;27.05;;;1.60;99.90;;;;;;5044448;28;20719;-85
2021/12/21 13:26:57;;;;;;;47.93;28.80;;;1.70;99.90;;;;;;5032112;28;20395;-89
2021/12/21 13:29:35;;;;;;;38.00;25.27;;;1.60;99.90;;;;;;5030941;28;20416;-87
2021/12/21 13:32:08;;;;;;;44.55;26.58;;;1.70;99.90;;;;;;5064091;28;20498;-86
2021/12/21 13:34:37;;;;;;;39.22;26.23;;;1.80;99.90;;;;;;5052210;28;20422;-85
2021/12/21 13:37:08;;;;;;;36.85;25.17;;;2.00;99.90;;;;;;5067604;28;20386;-86
2021/12/21 13:39:45;;;;;;;37.95;24.55;;;2.10;99.90;;;;;;5068907;28;20436;-85
2021/12/21 13:42:15;;;;;;;37.97;24.70;;;2.00;99.90;;;;;;5045515;28;20417;-88
2021/12/21 13:44:59;;;;;;;36.38;25.13;;;1.90;99.90;;;;;;5034555;28;20738;-85
2021/12/21 13:47:40;;;;;;;39.35;25.83;;;1.80;99.90;;;;;;5042029;28;20395;-86
2021/12/21 13:50:19;;;;;;;37.33;25.38;;;1.80;99.90;;;;;;5069481;28;20379;-87
2021/12/21 13:53:10;;;;;;;37.22;24.85;;;1.90;99.90;;;;;;5063660;28;20419;-87
2021/12/21 13:55:40;;;;;;;39.72;25.40;;;1.90;99.90;;;;;;5049802;28;20776;-88
2021/12/21 13:58:12;;;;;;;36.85;24.65;;;1.90;99.90;;;;;;5068229;28;20391;-89
2021/12/21 14:00:45;;;;;;;39.03;26.03;;;1.90;99.90;;;;;;5050114;28;20815;-85
2021/12/21 14:03:51;;;;;;;38.83;25.40;;;1.90;99.90;;;;;;5023108;28;20449;-88
2021/12/21 14:06:13;;;;;;;38.80;25.50;;;2.00;99.90;;;;;;5050886;28;20403;-88
2021/12/21 14:19:36;;;;;;;41.42;24.52;;;2.00;99.90;;;;;;5064956;28;20897;-86
2021/12/21 14:22:05;;;;;;;49.72;27.40;;;1.70;99.90;;;;;;5063893;28;20398;-88
2021/12/21 14:24:31;;;;;;;44.70;27.42;;;1.30;99.90;;;;;;5062902;28;20395;-86
2021/12/21 14:27:09;;;;;;;44.60;25.90;;;1.30;99.90;;;;;;5063092;28;20462;-86
2021/12/21 14:29:36;;;;;;;44.30;25.23;;;1.30;99.90;;;;;;5062929;28;20412;-87
2021/12/21 14:34:47;;;;;;;52.35;25.27;;;1.50;99.90;;;;;;5064972;28;20373;-90
2021/12/21 14:37:18;;;;;;;37.05;22.65;;;1.50;99.90;;;;;;5057531;28;20395;-89
2021/12/21 14:40:09;;;;;;;40.65;24.15;;;1.60;99.90;;;;;;5063221;28;20388;-87
2021/12/21 14:42:51;;;;;;;36.05;22.27;;;1.40;99.90;;;;;;5064080;28;20387;-87